sensor_id;sensor_type;location;lat;lon;timestamp;P1;durP1;ratioP1;P2;durP2;ratioP2
41817;SDS011;27493;51.730;5.294;2023-01-29T00:01:51;25.57;;;15.37;;
41817;SDS011;27493;51.730;5.294;2023-01-29T00:04:17;25.77;;;15.17;;
41817;SDS011;27493;51.730;5.294;2023-01-29T00:06:42;25.27;;;14.97;;
41817;SDS011;27493;51.730;5.294;2023-01-29T00:09:08;27.83;;;15.23;;
41817;SDS011;27493;51.730;5.294;2023-01-29T00:11:33;26.83;;;15.20;;
41817;SDS011;27493;51.730;5.294;2023-01-29T00:13:58;29.53;;;15.50;;
41817;SDS011;27493;51.730;5.294;2023-01-29T00:16:24;29.97;;;14.80;;
41817;SDS011;27493;51.730;5.294;2023-01-29T00:18:49;28.57;;;16.60;;
41817;SDS011;27493;51.730;5.294;2023-01-29T00:21:18;27.77;;;15.77;;
41817;SDS011;27493;51.730;5.294;2023-01-29T00:23:43;29.60;;;16.30;;
41817;SDS011;27493;51.730;5.294;2023-01-29T00:26:09;28.03;;;16.27;;
41817;SDS011;27493;51.730;5.294;2023-01-29T00:28:34;30.93;;;16.53;;
41817;SDS011;27493;51.730;5.294;2023-01-29T00:31:33;27.07;;;16.67;;
41817;SDS011;27493;51.730;5.294;2023-01-29T00:33:52;28.23;;;16.30;;
41817;SDS011;27493;51.730;5.294;2023-01-29T00:36:18;29.97;;;17.40;;
41817;SDS011;27493;51.730;5.294;2023-01-29T00:38:43;33.07;;;18.47;;
41817;SDS011;27493;51.730;5.294;2023-01-29T00:41:09;28.13;;;17.00;;
41817;SDS011;27493;51.730;5.294;2023-01-29T00:43:54;29.57;;;16.40;;
41817;SDS011;27493;51.730;5.294;2023-01-29T00:46:38;30.03;;;18.20;;
41817;SDS011;27493;51.730;5.294;2023-01-29T00:49:03;29.43;;;17.30;;
41817;SDS011;27493;51.730;5.294;2023-01-29T00:51:28;28.13;;;16.97;;
41817;SDS011;27493;51.730;5.294;2023-01-29T00:53:54;32.00;;;18.63;;
41817;SDS011;27493;51.730;5.294;2023-01-29T00:56:26;29.97;;;17.20;;
41817;SDS011;27493;51.730;5.294;2023-01-29T00:58:52;31.10;;;17.40;;
41817;SDS011;27493;51.730;5.294;2023-01-29T01:01:17;31.47;;;19.03;;
41817;SDS011;27493;51.730;5.294;2023-01-29T01:04:03;32.67;;;18.17;;
41817;SDS011;27493;51.730;5.294;2023-01-29T01:06:28;30.27;;;17.17;;
41817;SDS011;27493;51.730;5.294;2023-01-29T01:08:53;31.50;;;17.87;;
41817;SDS011;27493;51.730;5.294;2023-01-29T01:11:37;31.90;;;18.13;;
41817;SDS011;27493;51.730;5.294;2023-01-29T01:14:02;32.07;;;17.40;;
41817;SDS011;27493;51.730;5.294;2023-01-29T01:16:27;29.77;;;17.70;;
41817;SDS011;27493;51.730;5.294;2023-01-29T01:18:53;31.00;;;17.83;;
41817;SDS011;27493;51.730;5.294;2023-01-29T01:21:18;30.60;;;17.00;;
41817;SDS011;27493;51.730;5.294;2023-01-29T01:23:43;30.53;;;17.20;;
41817;SDS011;27493;51.730;5.294;2023-01-29T01:26:08;31.47;;;17.23;;
41817;SDS011;27493;51.730;5.294;2023-01-29T01:28:34;27.27;;;15.90;;
41817;SDS011;27493;51.730;5.294;2023-01-29T01:31:06;28.37;;;15.83;;
41817;SDS011;27493;51.730;5.294;2023-01-29T01:33:31;26.87;;;16.80;;
41817;SDS011;27493;51.730;5.294;2023-01-29T01:35:59;30.33;;;16.63;;
41817;SDS011;27493;51.730;5.294;2023-01-29T01:38:25;28.40;;;16.87;;
41817;SDS011;27493;51.730;5.294;2023-01-29T01:40:50;32.03;;;17.30;;
41817;SDS011;27493;51.730;5.294;2023-01-29T01:43:15;30.20;;;17.43;;
41817;SDS011;27493;51.730;5.294;2023-01-29T01:45:40;32.03;;;17.00;;
41817;SDS011;27493;51.730;5.294;2023-01-29T01:48:09;28.97;;;16.83;;
41817;SDS011;27493;51.730;5.294;2023-01-29T01:55:59;26.93;;;16.00;;
41817;SDS011;27493;51.730;5.294;2023-01-29T01:58:42;31.87;;;17.13;;
41817;SDS011;27493;51.730;5.294;2023-01-29T02:01:09;32.63;;;17.87;;
41817;SDS011;27493;51.730;5.294;2023-01-29T02:03:37;29.93;;;16.57;;
41817;SDS011;27493;51.730;5.294;2023-01-29T02:06:23;30.03;;;16.23;;
41817;SDS011;27493;51.730;5.294;2023-01-29T02:09:12;28.73;;;17.03;;
41817;SDS011;27493;51.730;5.294;2023-01-29T02:11:58;31.10;;;17.43;;
41817;SDS011;27493;51.730;5.294;2023-01-29T02:14:24;29.23;;;16.47;;
41817;SDS011;27493;51.730;5.294;2023-01-29T02:16:49;30.70;;;17.00;;
41817;SDS011;27493;51.730;5.294;2023-01-29T02:19:22;29.47;;;17.20;;
41817;SDS011;27493;51.730;5.294;2023-01-29T02:22:02;29.90;;;17.73;;
41817;SDS011;27493;51.730;5.294;2023-01-29T02:37:38;31.50;;;17.67;;
41817;SDS011;27493;51.730;5.294;2023-01-29T02:40:11;29.87;;;16.63;;
41817;SDS011;27493;51.730;5.294;2023-01-29T02:42:52;31.17;;;17.33;;
41817;SDS011;27493;51.730;5.294;2023-01-29T02:45:28;32.17;;;17.50;;
41817;SDS011;27493;51.730;5.294;2023-01-29T02:47:56;34.77;;;17.43;;
41817;SDS011;27493;51.730;5.294;2023-01-29T02:57:54;28.10;;;17.03;;
41817;SDS011;27493;51.730;5.294;2023-01-29T03:00:23;30.83;;;16.97;;
41817;SDS011;27493;51.730;5.294;2023-01-29T03:03:05;29.03;;;17.07;;
41817;SDS011;27493;51.730;5.294;2023-01-29T03:05:34;31.87;;;17.47;;
41817;SDS011;27493;51.730;5.294;2023-01-29T03:08:03;29.77;;;16.03;;
41817;SDS011;27493;51.730;5.294;2023-01-29T03:10:39;30.40;;;17.90;;
41817;SDS011;27493;51.730;5.294;2023-01-29T03:13:16;30.43;;;17.50;;
41817;SDS011;27493;51.730;5.294;2023-01-29T03:15:47;32.77;;;16.90;;
41817;SDS011;27493;51.730;5.294;2023-01-29T03:18:18;28.13;;;17.07;;
41817;SDS011;27493;51.730;5.294;2023-01-29T03:20:48;31.90;;;18.63;;
41817;SDS011;27493;51.730;5.294;2023-01-29T03:23:16;29.30;;;17.03;;
41817;SDS011;27493;51.730;5.294;2023-01-29T03:25:42;29.40;;;17.23;;
41817;SDS011;27493;51.730;5.294;2023-01-29T03:28:26;30.27;;;17.50;;
41817;SDS011;27493;51.730;5.294;2023-01-29T03:31:11;31.37;;;17.80;;
41817;SDS011;27493;51.730;5.294;2023-01-29T03:34:00;31.23;;;18.07;;
41817;SDS011;27493;51.730;5.294;2023-01-29T03:36:29;33.97;;;18.30;;
41817;SDS011;27493;51.730;5.294;2023-01-29T03:39:03;36.40;;;18.37;;
41817;SDS011;27493;51.730;5.294;2023-01-29T03:41:31;31.63;;;18.40;;
41817;SDS011;27493;51.730;5.294;2023-01-29T03:46:33;39.00;;;18.27;;
41817;SDS011;27493;51.730;5.294;2023-01-29T03:49:01;31.63;;;18.70;;
41817;SDS011;27493;51.730;5.294;2023-01-29T03:51:34;36.57;;;19.30;;
41817;SDS011;27493;51.730;5.294;2023-01-29T03:56:52;31.87;;;19.17;;
41817;SDS011;27493;51.730;5.294;2023-01-29T03:59:24;35.13;;;20.00;;
41817;SDS011;27493;51.730;5.294;2023-01-29T04:01:53;35.47;;;20.03;;
41817;SDS011;27493;51.730;5.294;2023-01-29T04:04:25;33.57;;;19.47;;
41817;SDS011;27493;51.730;5.294;2023-01-29T04:06:52;37.27;;;20.27;;
41817;SDS011;27493;51.730;5.294;2023-01-29T04:09:28;33.90;;;19.40;;
41817;SDS011;27493;51.730;5.294;2023-01-29T04:11:56;37.93;;;20.73;;
41817;SDS011;27493;51.730;5.294;2023-01-29T04:14:23;35.27;;;18.83;;
41817;SDS011;27493;51.730;5.294;2023-01-29T04:16:50;36.67;;;19.70;;
41817;SDS011;27493;51.730;5.294;2023-01-29T04:19:17;38.73;;;20.17;;
41817;SDS011;27493;51.730;5.294;2023-01-29T04:21:42;35.23;;;19.47;;
41817;SDS011;27493;51.730;5.294;2023-01-29T04:24:08;32.43;;;18.93;;
41817;SDS011;27493;51.730;5.294;2023-01-29T04:29:38;34.97;;;19.47;;
41817;SDS011;27493;51.730;5.294;2023-01-29T04:42:38;35.03;;;18.70;;
41817;SDS011;27493;51.730;5.294;2023-01-29T04:50:22;34.20;;;19.20;;
41817;SDS011;27493;51.730;5.294;2023-01-29T04:52:55;32.40;;;18.37;;
41817;SDS011;27493;51.730;5.294;2023-01-29T04:56:09;36.23;;;18.67;;
41817;SDS011;27493;51.730;5.294;2023-01-29T04:59:10;35.67;;;18.73;;
41817;SDS011;27493;51.730;5.294;2023-01-29T05:01:03;34.50;;;19.50;;
41817;SDS011;27493;51.730;5.294;2023-01-29T05:03:30;34.40;;;19.77;;
41817;SDS011;27493;51.730;5.294;2023-01-29T05:05:56;35.20;;;18.73;;
41817;SDS011;27493;51.730;5.294;2023-01-29T05:08:23;32.77;;;18.87;;
41817;SDS011;27493;51.730;5.294;2023-01-29T05:10:49;35.77;;;18.60;;
41817;SDS011;27493;51.730;5.294;2023-01-29T05:13:15;34.03;;;18.67;;
41817;SDS011;27493;51.730;5.294;2023-01-29T05:15:46;34.40;;;19.30;;
41817;SDS011;27493;51.730;5.294;2023-01-29T05:18:13;34.23;;;18.57;;
41817;SDS011;27493;51.730;5.294;2023-01-29T05:20:39;35.03;;;18.97;;
41817;SDS011;27493;51.730;5.294;2023-01-29T05:23:07;35.20;;;19.40;;
41817;SDS011;27493;51.730;5.294;2023-01-29T05:25:33;33.47;;;18.73;;
41817;SDS011;27493;51.730;5.294;2023-01-29T05:27:59;32.53;;;18.87;;
41817;SDS011;27493;51.730;5.294;2023-01-29T05:30:41;33.90;;;19.60;;
41817;SDS011;27493;51.730;5.294;2023-01-29T05:33:11;34.27;;;19.70;;
41817;SDS011;27493;51.730;5.294;2023-01-29T05:35:37;31.30;;;19.47;;
41817;SDS011;27493;51.730;5.294;2023-01-29T05:38:02;36.97;;;19.93;;
41817;SDS011;27493;51.730;5.294;2023-01-29T05:40:27;35.90;;;20.67;;
41817;SDS011;27493;51.730;5.294;2023-01-29T05:42:52;36.77;;;19.57;;
41817;SDS011;27493;51.730;5.294;2023-01-29T05:45:18;36.97;;;20.10;;
41817;SDS011;27493;51.730;5.294;2023-01-29T05:47:43;36.13;;;20.63;;
41817;SDS011;27493;51.730;5.294;2023-01-29T05:50:10;40.07;;;20.77;;
41817;SDS011;27493;51.730;5.294;2023-01-29T05:52:35;38.03;;;20.50;;
41817;SDS011;27493;51.730;5.294;2023-01-29T05:55:00;37.13;;;21.40;;
41817;SDS011;27493;51.730;5.294;2023-01-29T05:57:26;38.83;;;20.90;;
41817;SDS011;27493;51.730;5.294;2023-01-29T05:59:51;36.80;;;20.80;;
41817;SDS011;27493;51.730;5.294;2023-01-29T06:02:16;38.00;;;21.70;;
41817;SDS011;27493;51.730;5.294;2023-01-29T06:04:41;40.07;;;21.00;;
41817;SDS011;27493;51.730;5.294;2023-01-29T06:07:06;36.97;;;20.50;;
41817;SDS011;27493;51.730;5.294;2023-01-29T06:09:32;37.43;;;21.50;;
41817;SDS011;27493;51.730;5.294;2023-01-29T06:11:57;36.73;;;21.03;;
41817;SDS011;27493;51.730;5.294;2023-01-29T06:14:22;33.40;;;20.77;;
41817;SDS011;27493;51.730;5.294;2023-01-29T06:16:47;33.00;;;20.47;;
41817;SDS011;27493;51.730;5.294;2023-01-29T06:19:12;36.23;;;21.03;;
41817;SDS011;27493;51.730;5.294;2023-01-29T06:21:38;40.43;;;21.60;;
41817;SDS011;27493;51.730;5.294;2023-01-29T06:24:03;36.13;;;21.03;;
41817;SDS011;27493;51.730;5.294;2023-01-29T06:26:28;36.07;;;21.20;;
41817;SDS011;27493;51.730;5.294;2023-01-29T06:28:53;36.10;;;20.33;;
41817;SDS011;27493;51.730;5.294;2023-01-29T06:31:19;35.17;;;20.83;;
41817;SDS011;27493;51.730;5.294;2023-01-29T06:33:44;38.37;;;21.07;;
41817;SDS011;27493;51.730;5.294;2023-01-29T06:36:09;36.13;;;19.87;;
41817;SDS011;27493;51.730;5.294;2023-01-29T06:38:34;35.40;;;19.97;;
41817;SDS011;27493;51.730;5.294;2023-01-29T06:41:06;35.83;;;20.17;;
41817;SDS011;27493;51.730;5.294;2023-01-29T06:43:32;40.97;;;22.07;;
41817;SDS011;27493;51.730;5.294;2023-01-29T06:45:57;37.20;;;20.53;;
41817;SDS011;27493;51.730;5.294;2023-01-29T06:48:22;36.03;;;20.30;;
41817;SDS011;27493;51.730;5.294;2023-01-29T06:50:48;37.17;;;21.00;;
41817;SDS011;27493;51.730;5.294;2023-01-29T06:53:14;35.30;;;20.90;;
41817;SDS011;27493;51.730;5.294;2023-01-29T06:55:39;36.47;;;20.37;;
41817;SDS011;27493;51.730;5.294;2023-01-29T06:58:08;34.77;;;20.60;;
41817;SDS011;27493;51.730;5.294;2023-01-29T07:00:33;33.77;;;20.57;;
41817;SDS011;27493;51.730;5.294;2023-01-29T07:02:59;34.30;;;19.90;;
41817;SDS011;27493;51.730;5.294;2023-01-29T07:05:24;36.83;;;20.37;;
41817;SDS011;27493;51.730;5.294;2023-01-29T07:07:49;37.27;;;20.60;;
41817;SDS011;27493;51.730;5.294;2023-01-29T07:10:15;32.70;;;20.30;;
41817;SDS011;27493;51.730;5.294;2023-01-29T07:12:40;34.60;;;20.37;;
41817;SDS011;27493;51.730;5.294;2023-01-29T07:15:05;33.10;;;19.67;;
41817;SDS011;27493;51.730;5.294;2023-01-29T07:17:30;36.87;;;19.37;;
41817;SDS011;27493;51.730;5.294;2023-01-29T07:19:56;33.57;;;19.73;;
41817;SDS011;27493;51.730;5.294;2023-01-29T07:22:21;33.50;;;19.93;;
41817;SDS011;27493;51.730;5.294;2023-01-29T07:24:46;31.97;;;19.03;;
41817;SDS011;27493;51.730;5.294;2023-01-29T07:27:12;33.10;;;19.97;;
41817;SDS011;27493;51.730;5.294;2023-01-29T07:29:37;34.90;;;19.87;;
41817;SDS011;27493;51.730;5.294;2023-01-29T07:32:02;35.50;;;20.10;;
41817;SDS011;27493;51.730;5.294;2023-01-29T07:34:28;31.43;;;18.03;;
41817;SDS011;27493;51.730;5.294;2023-01-29T07:36:53;38.87;;;20.23;;
41817;SDS011;27493;51.730;5.294;2023-01-29T07:39:19;34.33;;;19.57;;
41817;SDS011;27493;51.730;5.294;2023-01-29T07:41:44;33.97;;;19.80;;
41817;SDS011;27493;51.730;5.294;2023-01-29T07:44:09;30.87;;;19.20;;
41817;SDS011;27493;51.730;5.294;2023-01-29T07:46:34;31.20;;;18.53;;
41817;SDS011;27493;51.730;5.294;2023-01-29T07:48:59;31.83;;;18.67;;
41817;SDS011;27493;51.730;5.294;2023-01-29T07:51:24;35.20;;;19.90;;
41817;SDS011;27493;51.730;5.294;2023-01-29T07:53:50;30.53;;;18.60;;
41817;SDS011;27493;51.730;5.294;2023-01-29T07:56:15;31.53;;;18.57;;
41817;SDS011;27493;51.730;5.294;2023-01-29T07:58:40;30.73;;;18.23;;
41817;SDS011;27493;51.730;5.294;2023-01-29T08:01:05;34.03;;;19.20;;
41817;SDS011;27493;51.730;5.294;2023-01-29T08:03:31;32.57;;;18.87;;
41817;SDS011;27493;51.730;5.294;2023-01-29T08:05:56;30.67;;;18.83;;
41817;SDS011;27493;51.730;5.294;2023-01-29T08:08:22;31.00;;;18.00;;
41817;SDS011;27493;51.730;5.294;2023-01-29T08:10:47;31.80;;;18.60;;
41817;SDS011;27493;51.730;5.294;2023-01-29T08:13:12;33.07;;;18.80;;
41817;SDS011;27493;51.730;5.294;2023-01-29T08:15:37;32.37;;;18.80;;
41817;SDS011;27493;51.730;5.294;2023-01-29T08:18:03;30.33;;;16.63;;
41817;SDS011;27493;51.730;5.294;2023-01-29T08:20:28;30.47;;;17.23;;
41817;SDS011;27493;51.730;5.294;2023-01-29T08:23:00;28.30;;;17.07;;
41817;SDS011;27493;51.730;5.294;2023-01-29T08:25:26;31.17;;;17.10;;
41817;SDS011;27493;51.730;5.294;2023-01-29T08:27:51;29.60;;;16.50;;
41817;SDS011;27493;51.730;5.294;2023-01-29T08:30:16;28.53;;;16.57;;
41817;SDS011;27493;51.730;5.294;2023-01-29T08:32:41;27.20;;;16.37;;
41817;SDS011;27493;51.730;5.294;2023-01-29T08:35:07;29.63;;;17.43;;
41817;SDS011;27493;51.730;5.294;2023-01-29T08:37:32;28.83;;;15.67;;
41817;SDS011;27493;51.730;5.294;2023-01-29T08:39:57;25.97;;;15.83;;
41817;SDS011;27493;51.730;5.294;2023-01-29T08:42:22;28.03;;;16.13;;
41817;SDS011;27493;51.730;5.294;2023-01-29T08:44:48;28.80;;;16.03;;
41817;SDS011;27493;51.730;5.294;2023-01-29T08:47:13;28.80;;;16.57;;
41817;SDS011;27493;51.730;5.294;2023-01-29T08:49:38;27.87;;;15.33;;
41817;SDS011;27493;51.730;5.294;2023-01-29T08:52:03;26.43;;;15.53;;
41817;SDS011;27493;51.730;5.294;2023-01-29T08:54:28;25.37;;;15.07;;
41817;SDS011;27493;51.730;5.294;2023-01-29T08:56:54;26.77;;;15.83;;
41817;SDS011;27493;51.730;5.294;2023-01-29T08:59:19;25.80;;;15.77;;
41817;SDS011;27493;51.730;5.294;2023-01-29T09:01:46;27.50;;;16.03;;
41817;SDS011;27493;51.730;5.294;2023-01-29T09:04:12;27.27;;;16.53;;
41817;SDS011;27493;51.730;5.294;2023-01-29T09:06:37;27.10;;;15.20;;
41817;SDS011;27493;51.730;5.294;2023-01-29T09:09:02;25.73;;;15.13;;
41817;SDS011;27493;51.730;5.294;2023-01-29T09:11:27;26.37;;;15.73;;
41817;SDS011;27493;51.730;5.294;2023-01-29T09:13:52;24.93;;;15.57;;
41817;SDS011;27493;51.730;5.294;2023-01-29T09:16:18;27.10;;;15.03;;
41817;SDS011;27493;51.730;5.294;2023-01-29T09:18:43;25.40;;;15.33;;
41817;SDS011;27493;51.730;5.294;2023-01-29T09:21:08;25.77;;;15.30;;
41817;SDS011;27493;51.730;5.294;2023-01-29T09:23:33;24.70;;;14.20;;
41817;SDS011;27493;51.730;5.294;2023-01-29T09:25:58;26.57;;;15.10;;
41817;SDS011;27493;51.730;5.294;2023-01-29T09:28:24;24.23;;;13.83;;
41817;SDS011;27493;51.730;5.294;2023-01-29T09:30:49;21.67;;;13.77;;
41817;SDS011;27493;51.730;5.294;2023-01-29T09:33:14;22.17;;;14.30;;
41817;SDS011;27493;51.730;5.294;2023-01-29T09:35:40;22.43;;;13.87;;
41817;SDS011;27493;51.730;5.294;2023-01-29T09:38:06;20.97;;;12.93;;
41817;SDS011;27493;51.730;5.294;2023-01-29T09:43:17;23.17;;;14.37;;
41817;SDS011;27493;51.730;5.294;2023-01-29T09:45:59;23.47;;;13.63;;
41817;SDS011;27493;51.730;5.294;2023-01-29T09:48:26;23.23;;;14.27;;
41817;SDS011;27493;51.730;5.294;2023-01-29T09:50:52;22.97;;;13.87;;
41817;SDS011;27493;51.730;5.294;2023-01-29T09:53:20;21.47;;;13.50;;
41817;SDS011;27493;51.730;5.294;2023-01-29T09:55:49;21.13;;;12.87;;
41817;SDS011;27493;51.730;5.294;2023-01-29T09:58:21;22.00;;;12.57;;
41817;SDS011;27493;51.730;5.294;2023-01-29T10:13:38;23.20;;;14.43;;
41817;SDS011;27493;51.730;5.294;2023-01-29T10:16:07;23.97;;;14.23;;
41817;SDS011;27493;51.730;5.294;2023-01-29T10:23:42;22.13;;;13.73;;
41817;SDS011;27493;51.730;5.294;2023-01-29T10:26:10;21.33;;;13.17;;
41817;SDS011;27493;51.730;5.294;2023-01-29T10:28:38;24.80;;;14.03;;
41817;SDS011;27493;51.730;5.294;2023-01-29T10:31:08;23.27;;;14.60;;
41817;SDS011;27493;51.730;5.294;2023-01-29T10:33:37;23.93;;;15.20;;
41817;SDS011;27493;51.730;5.294;2023-01-29T10:36:03;22.83;;;14.13;;
41817;SDS011;27493;51.730;5.294;2023-01-29T10:41:03;24.00;;;14.50;;
41817;SDS011;27493;51.730;5.294;2023-01-29T10:46:01;24.63;;;15.13;;
41817;SDS011;27493;51.730;5.294;2023-01-29T10:53:35;25.00;;;15.63;;
41817;SDS011;27493;51.730;5.294;2023-01-29T10:58:36;26.47;;;15.87;;
41817;SDS011;27493;51.730;5.294;2023-01-29T11:01:02;25.90;;;15.50;;
41817;SDS011;27493;51.730;5.294;2023-01-29T11:03:28;27.20;;;16.40;;
41817;SDS011;27493;51.730;5.294;2023-01-29T11:06:01;24.33;;;15.37;;
41817;SDS011;27493;51.730;5.294;2023-01-29T11:08:50;26.77;;;16.13;;
41817;SDS011;27493;51.730;5.294;2023-01-29T11:11:17;25.87;;;16.00;;
41817;SDS011;27493;51.730;5.294;2023-01-29T11:16:17;25.93;;;16.53;;
41817;SDS011;27493;51.730;5.294;2023-01-29T11:18:55;27.57;;;17.27;;
41817;SDS011;27493;51.730;5.294;2023-01-29T11:21:21;25.40;;;15.93;;
41817;SDS011;27493;51.730;5.294;2023-01-29T11:23:47;24.33;;;16.13;;
41817;SDS011;27493;51.730;5.294;2023-01-29T11:26:16;25.60;;;15.73;;
41817;SDS011;27493;51.730;5.294;2023-01-29T11:28:43;22.13;;;15.13;;
41817;SDS011;27493;51.730;5.294;2023-01-29T11:33:40;24.37;;;15.87;;
41817;SDS011;27493;51.730;5.294;2023-01-29T11:36:18;24.70;;;15.90;;
41817;SDS011;27493;51.730;5.294;2023-01-29T11:38:44;25.93;;;16.37;;
41817;SDS011;27493;51.730;5.294;2023-01-29T11:41:15;26.47;;;16.17;;
41817;SDS011;27493;51.730;5.294;2023-01-29T11:43:46;25.50;;;15.83;;
41817;SDS011;27493;51.730;5.294;2023-01-29T11:46:12;24.07;;;15.60;;
41817;SDS011;27493;51.730;5.294;2023-01-29T11:48:45;23.80;;;15.67;;
41817;SDS011;27493;51.730;5.294;2023-01-29T11:51:19;22.97;;;15.87;;
41817;SDS011;27493;51.730;5.294;2023-01-29T11:53:48;23.30;;;15.30;;
41817;SDS011;27493;51.730;5.294;2023-01-29T11:56:16;29.93;;;16.57;;
41817;SDS011;27493;51.730;5.294;2023-01-29T11:58:42;24.80;;;16.37;;
41817;SDS011;27493;51.730;5.294;2023-01-29T12:01:08;25.87;;;15.97;;
41817;SDS011;27493;51.730;5.294;2023-01-29T12:03:44;27.13;;;16.33;;
41817;SDS011;27493;51.730;5.294;2023-01-29T12:06:15;26.17;;;16.10;;
41817;SDS011;27493;51.730;5.294;2023-01-29T12:08:42;25.57;;;16.37;;
41817;SDS011;27493;51.730;5.294;2023-01-29T12:11:23;31.87;;;16.87;;
41817;SDS011;27493;51.730;5.294;2023-01-29T12:13:53;27.90;;;17.57;;
41817;SDS011;27493;51.730;5.294;2023-01-29T12:16:21;26.60;;;17.13;;
41817;SDS011;27493;51.730;5.294;2023-01-29T12:18:53;24.90;;;15.90;;
41817;SDS011;27493;51.730;5.294;2023-01-29T12:21:26;28.30;;;16.67;;
41817;SDS011;27493;51.730;5.294;2023-01-29T12:26:32;28.10;;;18.00;;
41817;SDS011;27493;51.730;5.294;2023-01-29T12:29:17;29.57;;;17.00;;
41817;SDS011;27493;51.730;5.294;2023-01-29T12:34:14;28.73;;;17.60;;
41817;SDS011;27493;51.730;5.294;2023-01-29T12:39:07;27.23;;;17.53;;
41817;SDS011;27493;51.730;5.294;2023-01-29T12:46:43;28.60;;;18.07;;
41817;SDS011;27493;51.730;5.294;2023-01-29T12:49:21;31.63;;;18.00;;
41817;SDS011;27493;51.730;5.294;2023-01-29T12:51:50;29.30;;;17.97;;
41817;SDS011;27493;51.730;5.294;2023-01-29T12:54:19;31.20;;;18.90;;
41817;SDS011;27493;51.730;5.294;2023-01-29T12:56:46;30.07;;;18.43;;
41817;SDS011;27493;51.730;5.294;2023-01-29T13:01:46;31.43;;;18.63;;
41817;SDS011;27493;51.730;5.294;2023-01-29T13:04:14;30.43;;;18.40;;
41817;SDS011;27493;51.730;5.294;2023-01-29T13:06:46;28.90;;;18.90;;
41817;SDS011;27493;51.730;5.294;2023-01-29T13:09:14;30.23;;;18.93;;
41817;SDS011;27493;51.730;5.294;2023-01-29T13:11:46;28.97;;;18.27;;
41817;SDS011;27493;51.730;5.294;2023-01-29T13:17:01;30.83;;;19.67;;
41817;SDS011;27493;51.730;5.294;2023-01-29T13:19:32;32.93;;;19.97;;
41817;SDS011;27493;51.730;5.294;2023-01-29T13:22:00;32.10;;;19.87;;
41817;SDS011;27493;51.730;5.294;2023-01-29T13:24:29;31.87;;;19.27;;
41817;SDS011;27493;51.730;5.294;2023-01-29T13:26:56;31.27;;;19.13;;
41817;SDS011;27493;51.730;5.294;2023-01-29T13:29:22;31.93;;;20.23;;
41817;SDS011;27493;51.730;5.294;2023-01-29T13:31:48;34.57;;;19.47;;
41817;SDS011;27493;51.730;5.294;2023-01-29T13:34:24;33.57;;;20.40;;
41817;SDS011;27493;51.730;5.294;2023-01-29T13:36:53;38.30;;;24.10;;
41817;SDS011;27493;51.730;5.294;2023-01-29T13:39:26;33.67;;;20.80;;
41817;SDS011;27493;51.730;5.294;2023-01-29T13:41:53;33.93;;;20.47;;
41817;SDS011;27493;51.730;5.294;2023-01-29T13:44:20;31.07;;;19.27;;
41817;SDS011;27493;51.730;5.294;2023-01-29T13:46:50;31.77;;;19.37;;
41817;SDS011;27493;51.730;5.294;2023-01-29T13:49:51;32.33;;;20.30;;
41817;SDS011;27493;51.730;5.294;2023-01-29T14:02:46;33.00;;;18.97;;
41817;SDS011;27493;51.730;5.294;2023-01-29T14:10:24;36.57;;;20.87;;
41817;SDS011;27493;51.730;5.294;2023-01-29T14:12:50;30.30;;;19.97;;
41817;SDS011;27493;51.730;5.294;2023-01-29T14:17:57;36.23;;;20.00;;
41817;SDS011;27493;51.730;5.294;2023-01-29T14:20:26;34.87;;;21.37;;
41817;SDS011;27493;51.730;5.294;2023-01-29T14:22:53;35.47;;;20.70;;
41817;SDS011;27493;51.730;5.294;2023-01-29T14:25:20;33.90;;;20.73;;
41817;SDS011;27493;51.730;5.294;2023-01-29T14:27:47;32.77;;;19.60;;
41817;SDS011;27493;51.730;5.294;2023-01-29T14:30:15;35.00;;;20.07;;
41817;SDS011;27493;51.730;5.294;2023-01-29T14:32:41;39.97;;;21.17;;
41817;SDS011;27493;51.730;5.294;2023-01-29T14:35:21;39.77;;;22.00;;
41817;SDS011;27493;51.730;5.294;2023-01-29T14:37:47;35.27;;;21.10;;
41817;SDS011;27493;51.730;5.294;2023-01-29T14:58:01;35.72;;;21.00;;
41817;SDS011;27493;51.730;5.294;2023-01-29T15:00:28;35.43;;;20.57;;
41817;SDS011;27493;51.730;5.294;2023-01-29T15:02:54;33.17;;;19.67;;
41817;SDS011;27493;51.730;5.294;2023-01-29T15:05:23;34.07;;;20.73;;
41817;SDS011;27493;51.730;5.294;2023-01-29T15:07:54;33.77;;;19.37;;
41817;SDS011;27493;51.730;5.294;2023-01-29T15:10:21;35.43;;;20.07;;
41817;SDS011;27493;51.730;5.294;2023-01-29T15:15:35;32.97;;;19.83;;
41817;SDS011;27493;51.730;5.294;2023-01-29T15:18:05;34.13;;;19.20;;
41817;SDS011;27493;51.730;5.294;2023-01-29T15:20:33;41.00;;;26.40;;
41817;SDS011;27493;51.730;5.294;2023-01-29T15:22:59;35.87;;;20.27;;
41817;SDS011;27493;51.730;5.294;2023-01-29T15:25:24;35.53;;;20.00;;
41817;SDS011;27493;51.730;5.294;2023-01-29T15:27:51;35.53;;;20.73;;
41817;SDS011;27493;51.730;5.294;2023-01-29T15:30:20;43.20;;;26.13;;
41817;SDS011;27493;51.730;5.294;2023-01-29T15:32:46;38.63;;;20.73;;
41817;SDS011;27493;51.730;5.294;2023-01-29T15:37:57;33.50;;;20.20;;
41817;SDS011;27493;51.730;5.294;2023-01-29T15:40:22;33.10;;;19.30;;
41817;SDS011;27493;51.730;5.294;2023-01-29T15:42:47;31.27;;;18.40;;
41817;SDS011;27493;51.730;5.294;2023-01-29T15:47:47;33.07;;;19.67;;
41817;SDS011;27493;51.730;5.294;2023-01-29T15:50:12;35.17;;;19.30;;
41817;SDS011;27493;51.730;5.294;2023-01-29T15:52:38;33.30;;;18.13;;
41817;SDS011;27493;51.730;5.294;2023-01-29T15:55:03;31.97;;;19.17;;
41817;SDS011;27493;51.730;5.294;2023-01-29T15:57:32;34.53;;;18.30;;
41817;SDS011;27493;51.730;5.294;2023-01-29T15:59:59;29.93;;;18.47;;
41817;SDS011;27493;51.730;5.294;2023-01-29T16:04:59;32.53;;;18.00;;
41817;SDS011;27493;51.730;5.294;2023-01-29T16:07:25;30.50;;;17.47;;
41817;SDS011;27493;51.730;5.294;2023-01-29T16:09:51;31.73;;;18.00;;
41817;SDS011;27493;51.730;5.294;2023-01-29T16:12:16;31.40;;;16.93;;
41817;SDS011;27493;51.730;5.294;2023-01-29T16:14:42;29.50;;;18.07;;
41817;SDS011;27493;51.730;5.294;2023-01-29T16:19:44;27.87;;;16.67;;
41817;SDS011;27493;51.730;5.294;2023-01-29T16:22:19;31.17;;;17.77;;
41817;SDS011;27493;51.730;5.294;2023-01-29T16:24:44;29.63;;;17.67;;
41817;SDS011;27493;51.730;5.294;2023-01-29T16:27:12;30.73;;;17.27;;
41817;SDS011;27493;51.730;5.294;2023-01-29T16:29:37;33.83;;;17.80;;
41817;SDS011;27493;51.730;5.294;2023-01-29T16:32:03;30.63;;;17.90;;
41817;SDS011;27493;51.730;5.294;2023-01-29T16:34:31;32.47;;;17.80;;
41817;SDS011;27493;51.730;5.294;2023-01-29T16:36:57;28.57;;;17.30;;
41817;SDS011;27493;51.730;5.294;2023-01-29T16:39:23;31.20;;;17.40;;
41817;SDS011;27493;51.730;5.294;2023-01-29T16:44:37;25.63;;;16.17;;
41817;SDS011;27493;51.730;5.294;2023-01-29T16:47:10;26.33;;;15.73;;
41817;SDS011;27493;51.730;5.294;2023-01-29T16:52:15;27.73;;;16.30;;
41817;SDS011;27493;51.730;5.294;2023-01-29T16:54:41;28.87;;;16.70;;
41817;SDS011;27493;51.730;5.294;2023-01-29T16:57:10;27.00;;;15.80;;
41817;SDS011;27493;51.730;5.294;2023-01-29T16:59:38;27.37;;;15.77;;
41817;SDS011;27493;51.730;5.294;2023-01-29T17:02:04;29.00;;;16.70;;
41817;SDS011;27493;51.730;5.294;2023-01-29T17:04:39;28.20;;;16.43;;
41817;SDS011;27493;51.730;5.294;2023-01-29T17:07:04;28.47;;;16.77;;
41817;SDS011;27493;51.730;5.294;2023-01-29T17:09:33;28.83;;;15.97;;